createdAt,value
2022-11-24T00:01:21.192Z,99188.00
2022-11-24T00:09:12.937Z,99169.00
2022-11-24T00:15:58.258Z,99231.00
2022-11-24T00:19:17.025Z,99200.00
2022-11-24T00:23:37.967Z,99239.00
2022-11-24T00:27:17.783Z,99233.00
2022-11-24T00:30:48.141Z,99235.00
2022-11-24T00:43:14.593Z,99255.00
2022-11-24T00:46:23.369Z,99175.00
2022-11-24T00:50:33.483Z,99168.00
2022-11-24T00:58:07.054Z,99250.00
2022-11-24T01:01:28.882Z,99235.00
2022-11-24T01:05:05.752Z,99263.00
2022-11-24T01:08:59.686Z,99186.00
2022-11-24T01:20:11.334Z,99261.00
2022-11-24T01:23:51.244Z,99244.00
2022-11-24T01:35:13.107Z,99289.00
2022-11-24T01:38:00.735Z,99287.00
2022-11-24T01:40:46.535Z,99294.00
2022-11-24T01:43:37.681Z,99263.00
2022-11-24T01:47:14.204Z,99289.00
2022-11-24T01:50:49.362Z,99290.00
2022-11-24T01:58:09.460Z,99238.00
2022-11-24T02:00:54.707Z,99249.00
2022-11-24T02:03:48.890Z,99255.00
2022-11-24T02:06:47.255Z,99317.00
2022-11-24T02:09:39.639Z,99325.00
2022-11-24T02:15:42.938Z,99326.00
2022-11-24T02:18:24.083Z,99281.00
2022-11-24T02:21:06.138Z,99312.00
2022-11-24T02:28:39.157Z,99255.00
2022-11-24T02:32:19.982Z,99308.00
2022-11-24T02:36:43.061Z,99330.00
2022-11-24T02:38:19.755Z,99326.00
2022-11-24T02:41:10.829Z,99282.00
2022-11-24T02:43:58.908Z,99246.00
2022-11-24T02:47:51.588Z,99314.00
2022-11-24T02:51:27.619Z,99271.00
2022-11-24T02:55:10.857Z,99344.00
2022-11-24T02:57:50.888Z,99350.00
2022-11-24T03:01:05.363Z,99344.00
2022-11-24T03:03:48.381Z,99268.00
2022-11-24T03:06:46.462Z,99352.00
2022-11-24T03:09:24.671Z,99255.00
2022-11-24T03:12:07.743Z,99295.00
2022-11-24T03:16:14.677Z,99347.00
2022-11-24T03:18:56.700Z,99294.00
2022-11-24T03:21:59.869Z,99287.00
2022-11-24T03:24:38.816Z,99322.00
2022-11-24T03:27:24.829Z,99286.00
2022-11-24T03:34:26.189Z,99355.00
2022-11-24T03:41:13.425Z,99355.00
2022-11-24T03:43:59.902Z,99365.00
2022-11-24T03:46:39.135Z,99285.00
2022-11-24T03:49:20.842Z,99267.00
2022-11-24T03:52:42.249Z,99374.00
2022-11-24T04:01:52.780Z,99327.00
2022-11-24T04:04:04.190Z,99285.00
2022-11-24T04:08:24.671Z,99397.00
2022-11-24T04:12:21.265Z,99379.00
2022-11-24T04:15:50.772Z,99374.00
2022-11-24T04:23:27.140Z,99376.00
2022-11-24T04:27:09.877Z,99381.00
2022-11-24T04:29:51.563Z,99299.00
2022-11-24T04:33:03.657Z,99392.00
2022-11-24T04:36:01.023Z,99356.00
2022-11-24T04:39:24.477Z,99351.00
2022-11-24T04:43:35.218Z,99332.00
2022-11-24T04:46:19.463Z,99408.00
2022-11-24T04:52:22.101Z,99364.00
2022-11-24T04:55:25.387Z,99377.00
2022-11-24T04:58:32.415Z,99426.00
2022-11-24T05:06:29.528Z,99371.00
2022-11-24T05:09:16.914Z,99421.00
2022-11-24T05:13:10.593Z,99438.00
2022-11-24T05:23:11.064Z,99408.00
2022-11-24T05:25:52.094Z,99401.00
2022-11-24T05:28:37.921Z,99452.00
2022-11-24T05:31:12.465Z,99426.00
2022-11-24T05:33:51.847Z,99388.00
2022-11-24T05:37:16.337Z,99461.00
2022-11-24T05:39:58.432Z,99460.00
2022-11-24T05:45:58.792Z,99480.00
2022-11-24T05:48:49.123Z,99461.00
2022-11-24T05:52:46.454Z,99472.00
2022-11-24T05:55:40.561Z,99484.00
2022-11-24T05:59:17.340Z,99494.00
2022-11-24T06:02:27.230Z,99444.00
2022-11-24T06:10:12.687Z,99482.00
2022-11-24T06:12:53.103Z,99435.00
2022-11-24T06:15:31.228Z,99442.00
2022-11-24T06:18:19.163Z,99439.00
2022-11-24T06:29:38.780Z,99510.00
2022-11-24T06:41:19.538Z,99515.00
2022-11-24T06:45:16.996Z,99530.00
2022-11-24T06:48:57.401Z,99464.00
2022-11-24T06:52:32.274Z,99547.00
2022-11-24T07:00:08.356Z,99450.00
2022-11-24T07:04:10.837Z,99556.00
2022-11-24T07:11:40.467Z,99568.00
2022-11-24T07:14:46.658Z,99511.00
2022-11-24T07:17:44.729Z,99590.00
2022-11-24T07:20:48.149Z,99579.00
2022-11-24T07:23:28.399Z,99588.00
2022-11-24T07:26:13.562Z,99538.00
2022-11-24T07:28:53.762Z,99573.00
2022-11-24T07:31:32.793Z,99622.00
2022-11-24T07:34:09.820Z,99565.00
2022-11-24T07:36:45.478Z,99607.00
2022-11-24T07:39:20.828Z,99628.00
2022-11-24T07:41:56.415Z,99625.00
2022-11-24T07:45:01.997Z,99636.00
2022-11-24T07:47:51.965Z,99635.00
2022-11-24T07:50:32.965Z,99639.00
2022-11-24T07:53:13.067Z,99657.00
2022-11-24T07:55:57.914Z,99676.00
2022-11-24T07:58:54.068Z,99638.00
2022-11-24T08:01:29.452Z,99671.00
2022-11-24T08:04:09.795Z,99665.00
2022-11-24T08:06:54.667Z,99618.00
2022-11-24T08:09:39.364Z,99656.00
2022-11-24T08:12:28.187Z,99689.00
2022-11-24T08:15:09.430Z,99648.00
2022-11-24T08:18:06.484Z,99715.00
2022-11-24T08:20:52.440Z,99696.00
2022-11-24T08:23:43.213Z,99716.00
2022-11-24T08:26:27.998Z,99676.00
2022-11-24T08:29:05.160Z,99663.00
2022-11-24T08:31:43.010Z,99718.00
2022-11-24T08:35:08.561Z,99691.00
2022-11-24T08:37:54.318Z,99665.00
2022-11-24T08:40:33.403Z,99676.00
2022-11-24T08:43:13.029Z,99722.00
2022-11-24T08:45:55.468Z,99694.00
2022-11-24T08:48:55.391Z,99762.00
2022-11-24T08:51:39.959Z,99756.00
2022-11-24T08:54:23.455Z,99681.00
2022-11-24T08:57:08.242Z,99690.00
2022-11-24T09:00:06.594Z,99686.00
2022-11-24T09:03:03.854Z,99767.00
2022-11-24T09:05:55.087Z,99697.00
2022-11-24T09:08:57.131Z,99671.00
2022-11-24T09:11:37.700Z,99788.00
2022-11-24T09:14:15.040Z,99777.00
2022-11-24T09:16:53.453Z,99792.00
2022-11-24T09:19:45.859Z,99787.00
2022-11-24T09:22:21.790Z,99729.00
2022-11-24T09:25:03.390Z,99726.00
2022-11-24T09:27:56.663Z,99696.00
2022-11-24T09:30:46.159Z,99738.00
2022-11-24T09:33:34.908Z,99795.00
2022-11-24T09:36:28.547Z,99747.00
2022-11-24T09:39:34.480Z,99817.00
2022-11-24T09:42:20.315Z,99720.00
2022-11-24T09:45:15.849Z,99753.00
2022-11-24T09:48:39.283Z,99764.00
2022-11-24T09:51:17.997Z,99820.00
2022-11-24T09:54:05.708Z,99836.00
2022-11-24T09:56:52.047Z,99793.00
2022-11-24T09:59:39.668Z,99841.00
2022-11-24T10:02:43.883Z,99781.00
2022-11-24T10:05:52.500Z,99820.00
2022-11-24T10:08:57.649Z,99838.00
2022-11-24T10:12:06.280Z,99851.00
2022-11-24T10:15:23.692Z,99794.00
2022-11-24T10:18:50.632Z,99823.00
2022-11-24T10:23:06.011Z,99875.00
2022-11-24T10:26:26.138Z,99794.00
2022-11-24T10:29:22.553Z,99813.00
2022-11-24T10:32:01.366Z,99858.00
2022-11-24T10:34:49.829Z,99872.00
2022-11-24T10:37:53.840Z,99885.00
2022-11-24T10:41:30.496Z,99885.00
2022-11-24T10:44:56.769Z,99877.00
2022-11-24T10:47:26.366Z,99881.00
2022-11-24T10:50:27.811Z,99826.00
2022-11-24T10:53:45.058Z,99863.00
2022-11-24T11:00:38.527Z,99899.00
2022-11-24T11:06:37.855Z,99838.00
2022-11-24T11:09:30.587Z,99901.00
2022-11-24T11:13:02.441Z,99865.00
2022-11-24T11:15:45.231Z,99917.00
2022-11-24T11:22:54.884Z,99847.00
2022-11-24T11:25:41.787Z,99924.00
2022-11-24T11:28:33.326Z,99851.00
2022-11-24T11:31:26.320Z,99907.00
2022-11-24T11:34:21.875Z,99934.00
2022-11-24T11:37:02.968Z,99870.00
2022-11-24T11:39:49.268Z,99935.00
2022-11-24T11:43:04.124Z,99892.00
2022-11-24T11:45:54.711Z,99944.00
2022-11-24T11:48:43.283Z,99950.00
2022-11-24T11:52:15.532Z,99892.00
2022-11-24T11:55:51.893Z,99940.00
2022-11-24T11:59:04.435Z,99948.00
2022-11-24T12:02:34.617Z,99942.00
2022-11-24T12:05:44.384Z,99958.00
2022-11-24T12:09:18.174Z,99910.00
2022-11-24T12:12:40.224Z,99919.00
2022-11-24T12:20:17.704Z,99938.00
2022-11-24T12:23:41.056Z,99945.00
2022-11-24T12:26:57.412Z,99957.00
2022-11-24T12:34:11.108Z,99959.00
2022-11-24T12:41:18.233Z,99966.00
2022-11-24T12:43:56.850Z,99895.00
2022-11-24T12:47:05.419Z,99950.00
2022-11-24T12:50:12.452Z,99921.00
2022-11-24T12:53:10.554Z,99955.00
2022-11-24T12:55:54.533Z,99950.00
2022-11-24T12:58:50.802Z,99868.00
2022-11-24T13:01:57.360Z,99930.00
2022-11-24T13:05:03.048Z,99940.00
2022-11-24T13:08:18.998Z,99962.00
2022-11-24T13:11:40.354Z,99897.00
2022-11-24T13:14:47.233Z,99940.00
2022-11-24T13:18:18.864Z,99951.00
2022-11-24T13:22:01.203Z,99948.00
2022-11-24T13:24:50.959Z,99892.00
2022-11-24T13:27:56.753Z,99968.00
2022-11-24T13:31:30.405Z,99956.00
2022-11-24T13:35:23.256Z,99950.00
2022-11-24T13:39:19.250Z,99969.00
2022-11-24T13:46:16.506Z,99920.00
2022-11-24T13:49:28.945Z,99890.00
2022-11-24T13:52:54.106Z,99967.00
2022-11-24T13:55:44.649Z,99962.00
2022-11-24T13:58:48.407Z,100001.00
2022-11-24T14:01:50.963Z,99925.00
2022-11-24T14:04:42.282Z,99991.00
2022-11-24T14:07:40.974Z,99929.00
2022-11-24T14:13:44.354Z,99909.00
2022-11-24T14:17:21.604Z,99977.00
2022-11-24T14:23:46.820Z,99984.00
2022-11-24T14:26:49.581Z,99947.00
2022-11-24T14:29:28.280Z,99979.00
2022-11-24T14:32:24.452Z,99975.00
2022-11-24T14:35:02.255Z,99990.00
2022-11-24T14:37:40.093Z,100003.00
2022-11-24T14:40:45.761Z,99994.00
2022-11-24T14:43:31.649Z,99993.00
2022-11-24T14:46:12.472Z,99999.00
2022-11-24T14:48:50.755Z,99986.00
2022-11-24T14:51:29.439Z,99958.00
2022-11-24T14:54:16.464Z,99927.00
2022-11-24T14:57:06.756Z,99991.00
2022-11-24T14:59:41.069Z,100001.00
2022-11-24T15:02:44.407Z,99995.00
2022-11-24T15:05:19.810Z,99942.00
2022-11-24T15:08:04.704Z,99968.00
2022-11-24T15:10:49.029Z,99978.00
2022-11-24T15:13:39.192Z,99973.00
2022-11-24T15:16:24.364Z,99947.00
2022-11-24T15:19:09.961Z,99986.00
2022-11-24T15:21:44.409Z,99969.00
2022-11-24T15:24:20.914Z,99975.00
2022-11-24T15:27:02.169Z,99984.00
2022-11-24T15:29:38.032Z,99983.00
2022-11-24T15:32:21.271Z,99973.00
2022-11-24T15:35:03.691Z,99997.00
2022-11-24T15:37:43.261Z,99980.00
2022-11-24T15:40:22.658Z,99999.00
2022-11-24T15:43:06.572Z,100004.00
2022-11-24T15:45:45.061Z,99980.00
2022-11-24T15:48:19.367Z,99992.00
2022-11-24T15:50:55.224Z,100011.00
2022-11-24T15:53:36.152Z,100003.00
2022-11-24T15:56:29.029Z,100007.00
2022-11-24T15:59:08.595Z,100005.00
2022-11-24T16:01:46.763Z,99996.00
2022-11-24T16:04:35.142Z,99937.00
2022-11-24T16:07:18.157Z,99979.00
2022-11-24T16:10:08.771Z,100017.00
2022-11-24T16:12:45.753Z,100037.00
2022-11-24T16:15:23.473Z,100021.00
2022-11-24T16:17:59.573Z,100033.00
2022-11-24T16:20:46.255Z,99977.00
2022-11-24T16:23:42.758Z,99955.00
2022-11-24T16:26:27.236Z,100028.00
2022-11-24T16:29:04.417Z,100005.00
2022-11-24T16:31:38.455Z,100016.00
2022-11-24T16:34:41.587Z,100021.00
2022-11-24T16:37:31.357Z,99978.00
2022-11-24T16:40:35.720Z,100042.00
2022-11-24T16:43:15.945Z,100027.00
2022-11-24T16:46:31.135Z,100054.00
2022-11-24T16:49:15.338Z,100033.00
2022-11-24T16:52:05.280Z,99982.00
2022-11-24T16:54:40.135Z,100023.00
2022-11-24T16:57:36.177Z,99970.00
2022-11-24T17:00:30.541Z,100037.00
2022-11-24T17:03:34.644Z,100029.00
2022-11-24T17:06:33.205Z,99975.00
2022-11-24T17:09:18.302Z,100027.00
2022-11-24T17:12:07.235Z,100016.00
2022-11-24T17:14:41.988Z,100011.00
2022-11-24T17:17:17.577Z,100008.00
2022-11-24T17:19:59.913Z,100000.00
2022-11-24T17:22:56.995Z,99998.00
2022-11-24T17:25:35.892Z,99987.00
2022-11-24T17:28:10.721Z,100035.00
2022-11-24T17:31:12.414Z,100028.00
2022-11-24T17:33:57.066Z,99990.00
2022-11-24T17:36:42.819Z,100018.00
2022-11-24T17:40:05.923Z,100040.00
2022-11-24T17:43:18.283Z,99976.00
2022-11-24T17:46:16.629Z,100035.00
2022-11-24T17:48:52.623Z,100025.00
2022-11-24T17:51:29.192Z,100039.00
2022-11-24T17:54:31.180Z,100036.00
2022-11-24T17:57:05.495Z,100076.00
2022-11-24T17:59:48.867Z,100058.00
2022-11-24T18:02:23.819Z,100056.00
2022-11-24T18:05:03.739Z,100047.00
2022-11-24T18:07:57.794Z,99986.00
2022-11-24T18:10:43.379Z,99993.00
2022-11-24T18:13:54.810Z,100050.00
2022-11-24T18:16:32.742Z,100041.00
2022-11-24T18:19:31.255Z,100005.00
2022-11-24T18:22:11.580Z,100014.00
2022-11-24T18:25:09.946Z,100061.00
2022-11-24T18:27:49.638Z,100069.00
2022-11-24T18:30:26.377Z,100066.00
2022-11-24T18:33:16.004Z,100019.00
2022-11-24T18:40:12.815Z,100038.00
2022-11-24T18:43:11.298Z,100040.00
2022-11-24T18:49:11.440Z,100090.00
2022-11-24T18:52:39.937Z,99996.00
2022-11-24T18:55:24.686Z,100055.00
2022-11-24T18:58:38.198Z,100016.00
2022-11-24T19:01:59.469Z,100076.00
2022-11-24T19:04:42.911Z,99993.00
2022-11-24T19:07:22.589Z,100082.00
2022-11-24T19:10:49.200Z,100080.00
2022-11-24T19:13:45.092Z,100025.00
2022-11-24T19:16:50.323Z,100090.00
2022-11-24T19:19:32.270Z,100084.00
2022-11-24T19:22:44.388Z,100064.00
2022-11-24T19:29:57.747Z,100066.00
2022-11-24T19:33:53.211Z,100061.00
2022-11-24T19:36:57.478Z,99999.00
2022-11-24T19:40:01.601Z,100048.00
2022-11-24T19:43:05.031Z,100001.00
2022-11-24T19:45:46.974Z,100059.00
2022-11-24T19:48:24.753Z,100044.00
2022-11-24T19:51:25.051Z,99994.00
2022-11-24T19:57:42.311Z,100022.00
2022-11-24T20:00:31.972Z,100053.00
2022-11-24T20:06:54.715Z,100037.00
2022-11-24T20:10:23.777Z,100045.00
2022-11-24T20:13:07.038Z,99996.00
2022-11-24T20:16:06.107Z,100014.00
2022-11-24T20:19:06.366Z,99999.00
2022-11-24T20:22:22.471Z,100004.00
2022-11-24T20:25:20.530Z,99983.00
2022-11-24T20:28:13.585Z,100059.00
2022-11-24T20:31:52.268Z,100044.00
2022-11-24T20:34:39.846Z,100041.00
2022-11-24T20:37:40.644Z,100000.00
2022-11-24T20:40:17.653Z,99998.00
2022-11-24T20:43:13.060Z,100022.00
2022-11-24T20:45:54.785Z,99971.00
2022-11-24T20:48:30.626Z,100012.00
2022-11-24T20:51:55.371Z,100040.00
2022-11-24T20:54:37.361Z,100031.00
2022-11-24T20:57:37.429Z,100059.00
2022-11-24T21:00:21.175Z,100064.00
2022-11-24T21:03:42.980Z,100059.00
2022-11-24T21:06:46.555Z,99963.00
2022-11-24T21:09:52.814Z,100048.00
2022-11-24T21:13:12.840Z,100019.00
2022-11-24T21:15:58.098Z,99991.00
2022-11-24T21:19:07.022Z,100004.00
2022-11-24T21:25:25.425Z,100042.00
2022-11-24T21:28:24.684Z,100018.00
2022-11-24T21:31:14.770Z,100032.00
2022-11-24T21:34:01.986Z,100039.00
2022-11-24T21:36:50.015Z,100011.00
2022-11-24T21:39:25.932Z,100036.00
2022-11-24T21:42:11.347Z,100006.00
2022-11-24T21:45:03.177Z,99987.00
2022-11-24T21:47:56.491Z,100048.00
2022-11-24T21:51:12.023Z,100042.00
2022-11-24T21:53:47.969Z,100034.00
2022-11-24T22:00:03.684Z,100048.00
2022-11-24T22:02:43.132Z,100022.00
2022-11-24T22:05:22.290Z,100012.00
2022-11-24T22:08:09.288Z,99982.00
2022-11-24T22:11:10.346Z,99965.00
2022-11-24T22:13:49.278Z,100012.00
2022-11-24T22:16:48.702Z,99961.00
2022-11-24T22:19:26.947Z,99996.00
2022-11-24T22:22:04.585Z,99966.00
2022-11-24T22:25:09.942Z,99971.00
2022-11-24T22:31:13.874Z,99921.00
2022-11-24T22:33:56.739Z,100006.00
2022-11-24T22:36:58.911Z,99987.00
2022-11-24T22:40:48.787Z,100004.00
2022-11-24T22:43:28.148Z,100021.00
2022-11-24T22:46:53.716Z,99941.00
2022-11-24T22:49:34.428Z,99981.00
2022-11-24T22:52:11.711Z,99973.00
2022-11-24T22:54:51.500Z,99984.00
2022-11-24T22:57:28.857Z,99949.00
2022-11-24T23:03:46.299Z,99952.00
2022-11-24T23:06:23.878Z,100021.00
2022-11-24T23:09:30.832Z,99968.00
2022-11-24T23:12:09.339Z,99981.00
2022-11-24T23:15:23.760Z,99938.00
2022-11-24T23:17:58.603Z,99983.00
2022-11-24T23:20:45.130Z,99977.00
2022-11-24T23:23:19.497Z,99998.00
2022-11-24T23:25:56.653Z,99982.00
2022-11-24T23:28:46.234Z,99941.00
2022-11-24T23:31:33.822Z,99949.00
2022-11-24T23:34:09.587Z,99992.00
2022-11-24T23:36:44.599Z,99986.00
2022-11-24T23:39:24.529Z,99997.00
2022-11-24T23:41:59.083Z,99979.00
2022-11-24T23:45:05.298Z,99967.00
2022-11-24T23:47:55.238Z,99966.00
2022-11-24T23:50:33.236Z,99958.00
2022-11-24T23:53:09.631Z,99936.00
2022-11-24T23:56:03.560Z,99961.00
2022-11-24T23:58:40.394Z,99981.00
